.
WxDataArchive / Data Records for 2016-06-08
2016-06-07 June 2016 2016-06-09

Data Records for Wednesday, 08 June 2016

Time	Temp	Chill	HIndex	Humid	Dewpt	 Wind 	HiWind	WindDir	Rain 	Barom
-----	----	-----	------	-----	-----	------	------	-------	-----	-----
00:00	56.5	56.5	56.5	74	48.3	0	5	292	0.00	29.846 
00:05	56.3	56.3	56.3	74	48.1	1	3	292	0.00	29.846 
00:10	56.3	56.3	56.3	74	48.1	1	4	292	0.00	29.846 
00:15	56.2	56.2	56.2	74	48.0	1	4	292	0.00	29.846 
00:20	56.0	56.0	56.0	75	48.2	0	3	315	0.00	29.846 
00:25	55.9	55.9	55.9	75	48.1	1	4	315	0.00	29.846 
00:30	55.7	55.7	55.7	75	47.9	1	7	292	0.00	29.846 
00:35	55.7	55.7	55.7	75	47.9	1	5	292	0.00	29.846 
00:40	55.6	55.6	55.6	75	47.8	2	7	292	0.00	29.846 
00:45	55.6	55.6	55.6	75	47.8	1	6	292	0.00	29.848 
00:50	55.6	55.6	55.6	76	48.2	1	6	292	0.00	29.848 
00:55	55.6	55.6	55.6	76	48.2	1	3	315	0.00	29.848 
01:00	55.4	55.4	55.4	76	48.0	2	5	292	0.00	29.850 
01:05	55.3	55.3	55.3	76	47.9	2	6	292	0.00	29.850 
01:10	55.3	55.3	55.3	76	47.9	1	4	292	0.00	29.850 
01:15	55.1	55.1	55.1	76	47.7	1	5	292	0.00	29.849 
01:20	55.0	55.0	55.0	76	47.6	1	6	292	0.00	29.849 
01:25	54.8	54.8	54.8	77	47.7	0	3	292	0.00	29.849 
01:30	54.7	54.7	54.7	77	47.6	0	3	292	0.00	29.848 
01:35	54.5	54.5	54.5	77	47.4	0	3	292	0.00	29.848 
01:40	54.4	54.4	54.4	77	47.3	0	3	292	0.00	29.848 
01:45	54.1	54.1	54.1	78	47.4	0	1	292	0.00	29.850 
01:50	53.9	53.9	53.9	78	47.2	0	1	292	0.00	29.850 
01:55	53.6	53.6	53.6	78	46.9	0	1	292	0.00	29.850 
02:00	53.5	53.5	53.5	79	47.1	0	1	292	0.00	29.852 
02:05	53.3	53.3	53.3	79	47.0	0	1	292	0.00	29.852 
02:10	53.2	53.2	53.2	80	47.2	0	1	292	0.00	29.852 
02:15	53.1	53.1	53.1	81	47.4	0	1	292	0.00	29.854 
02:20	52.9	52.9	52.9	81	47.2	0	1	292	0.00	29.854 
02:25	52.9	52.9	52.9	81	47.2	0	1	292	0.00	29.854 
02:30	52.8	52.8	52.8	81	47.1	0	1	292	0.00	29.863 
02:35	52.6	52.6	52.6	82	47.3	0	1	292	0.00	29.863 
02:40	52.5	52.5	52.5	82	47.2	0	1	292	0.00	29.863 
02:45	52.3	52.3	52.3	82	47.0	0	1	292	0.00	29.865 
02:50	52.2	52.2	52.2	83	47.2	0	0	---	0.00	29.865 
02:55	52.0	52.0	52.0	83	47.0	0	1	292	0.00	29.865 
03:00	51.9	51.9	51.9	84	47.2	0	0	---	0.00	29.866 
03:05	51.7	51.7	51.7	84	47.0	0	0	---	0.00	29.866 
03:10	51.6	51.6	51.6	84	46.9	0	0	---	0.00	29.866 
03:15	51.4	51.4	51.4	85	47.0	0	0	---	0.00	29.867 
03:20	51.1	51.1	51.1	85	46.7	0	0	---	0.00	29.867 
03:25	51.0	51.0	51.0	85	46.7	0	0	---	0.00	29.867 
03:30	50.8	50.8	50.8	85	46.5	0	0	---	0.00	29.869 
03:35	50.5	50.5	50.5	86	46.5	0	0	---	0.00	29.869 
03:40	50.4	50.4	50.4	86	46.4	0	0	---	0.00	29.869 
03:45	50.2	50.2	50.2	87	46.5	0	0	---	0.00	29.869 
03:50	50.1	50.1	50.1	87	46.4	0	0	---	0.00	29.869 
03:55	49.9	49.9	49.9	87	46.2	0	0	---	0.00	29.869 
04:00	49.8	49.8	49.8	87	46.1	0	0	---	0.00	29.871 
04:05	49.6	49.6	49.6	88	46.2	0	0	---	0.00	29.871 
04:10	49.6	49.6	49.6	88	46.2	0	0	---	0.00	29.871 
04:15	49.5	49.5	49.5	88	46.1	0	0	---	0.00	29.868 
04:20	49.5	49.5	49.5	88	46.1	0	0	---	0.00	29.868 
04:25	49.5	49.5	49.5	89	46.4	0	0	---	0.00	29.868 
04:30	49.4	49.4	49.4	89	46.3	0	0	---	0.00	29.881 
04:35	49.4	49.4	49.4	89	46.3	0	0	---	0.00	29.881 
04:40	49.4	49.4	49.4	89	46.3	0	0	---	0.00	29.881 
04:45	49.4	49.4	49.4	89	46.3	0	0	---	0.00	29.884 
04:50	49.4	49.4	49.4	89	46.3	0	0	---	0.00	29.884 
04:55	49.4	49.4	49.4	90	46.6	0	0	---	0.00	29.884 
05:00	49.2	49.2	49.2	90	46.4	0	0	---	0.00	29.884 
05:05	49.1	49.1	49.1	90	46.3	0	0	---	0.00	29.884 
05:10	48.9	48.9	48.9	90	46.1	0	0	---	0.00	29.884 
05:15	48.8	48.8	48.8	90	46.0	0	0	---	0.00	29.887 
05:20	48.6	48.6	48.6	90	45.8	0	0	---	0.00	29.887 
05:25	48.5	48.5	48.5	90	45.7	0	0	---	0.00	29.887 
05:30	48.2	48.2	48.2	90	45.4	0	0	---	0.00	29.894 
05:35	48.0	48.0	48.0	90	45.2	0	0	---	0.00	29.894 
05:40	47.9	47.9	47.9	90	45.1	0	0	---	0.00	29.894 
05:45	47.7	47.7	47.7	90	44.9	0	0	---	0.00	29.892 
05:50	47.7	47.7	47.7	90	44.9	0	0	---	0.00	29.892 
05:55	47.6	47.6	47.6	90	44.8	0	0	---	0.00	29.892 
06:00	47.4	47.4	47.4	90	44.6	0	0	---	0.00	29.900 
06:05	47.4	47.4	47.4	91	44.9	0	0	---	0.00	29.900 
06:10	47.3	47.3	47.3	91	44.8	0	0	---	0.00	29.900 
06:15	47.3	47.3	47.3	91	44.8	0	0	---	0.00	29.913 
06:20	47.3	47.3	47.3	91	44.8	0	0	---	0.00	29.913 
06:25	47.4	47.4	47.4	91	44.9	0	0	---	0.00	29.913 
06:30	47.9	47.9	47.9	92	45.7	0	1	292	0.00	29.933 
06:35	48.5	48.5	48.5	92	46.3	0	1	292	0.00	29.933 
06:40	48.9	48.9	48.9	92	46.7	0	1	292	0.00	29.933 
06:45	49.2	49.2	49.2	92	47.0	0	0	---	0.00	29.925 
06:50	49.5	49.5	49.5	92	47.3	0	1	292	0.00	29.925 
06:55	49.8	49.8	49.8	92	47.6	0	1	292	0.00	29.925 
07:00	49.8	49.8	49.8	92	47.6	0	1	292	0.00	29.929 
07:05	49.9	49.9	49.9	92	47.7	0	1	292	0.00	29.929 
07:10	50.1	50.1	50.1	92	47.9	0	1	292	0.00	29.929 
07:15	50.2	50.2	50.2	92	48.0	0	2	292	0.00	29.934 
07:20	50.4	50.4	50.4	92	48.2	0	2	292	0.00	29.934 
07:25	50.7	50.7	50.7	92	48.5	0	3	292	0.00	29.934 
07:30	51.0	51.0	51.0	91	48.5	0	1	292	0.00	29.933 
07:35	51.4	51.4	51.4	91	48.9	0	2	292	0.00	29.933 
07:40	51.7	51.7	51.7	90	48.9	0	2	292	0.00	29.933 
07:45	52.2	52.2	52.2	89	49.1	0	2	292	0.00	29.941 
07:50	52.5	52.5	52.5	88	49.0	0	2	292	0.00	29.941 
07:55	52.9	52.9	52.9	86	48.8	0	3	292	0.00	29.941 
08:00	53.1	53.1	53.1	85	48.7	0	2	292	0.00	29.943 
08:05	53.3	53.3	53.3	83	48.3	1	3	292	0.00	29.943 
08:10	53.5	53.5	53.5	82	48.1	0	2	292	0.00	29.943 
08:15	53.8	53.8	53.8	81	48.1	0	2	292	0.00	29.948 
08:20	54.1	54.1	54.1	80	48.1	0	2	292	0.00	29.948 
08:25	54.5	54.5	54.5	79	48.1	0	2	292	0.00	29.948 
08:30	54.8	54.8	54.8	78	48.1	0	3	292	0.00	29.949 
08:35	55.4	55.4	55.4	78	48.7	0	2	292	0.00	29.949 
08:40	55.9	55.9	55.9	76	48.4	0	2	292	0.00	29.949 
08:45	56.0	56.0	56.0	75	48.2	0	2	292	0.00	29.956 
08:50	56.3	56.3	56.3	74	48.1	0	2	292	0.00	29.956 
08:55	56.6	56.6	56.6	71	47.3	1	3	292	0.00	29.956 
09:00	56.7	56.7	56.7	70	47.0	0	2	292	0.00	29.959 
09:05	57.3	57.3	57.3	69	47.2	1	3	292	0.00	29.959 
09:10	57.5	57.5	57.5	68	47.0	1	2	292	0.00	29.959 
09:15	57.6	57.6	57.6	67	46.7	1	4	315	0.00	29.963 
09:20	58.0	58.0	58.0	67	47.1	0	2	315	0.00	29.963 
09:25	58.3	58.3	58.3	65	46.6	1	3	315	0.00	29.963 
09:30	58.3	58.3	58.3	65	46.6	1	3	315	0.00	29.971 
09:35	58.4	58.4	58.4	64	46.3	1	3	315	0.00	29.971 
09:40	58.9	58.9	58.9	64	46.7	1	3	315	0.00	29.971 
09:45	59.0	59.0	59.0	62	46.0	1	4	292	0.00	29.974 
09:50	59.3	59.3	59.3	62	46.3	1	3	292	0.00	29.974 
09:55	59.2	59.2	59.2	62	46.2	1	3	270	0.00	29.974 
10:00	59.0	59.0	59.0	63	46.4	1	3	270	0.00	29.975 
10:05	59.3	59.3	59.3	64	47.1	1	3	270	0.00	29.975 
10:10	59.5	59.5	59.5	64	47.3	1	3	292	0.00	29.975 
10:15	59.6	59.6	59.6	62	46.6	2	4	292	0.00	29.974 
10:20	59.9	59.9	59.9	62	46.8	1	4	292	0.00	29.974 
10:25	60.2	60.2	60.2	62	47.1	1	3	292	0.00	29.974 
10:30	60.5	60.5	60.5	64	48.3	1	4	315	0.00	29.969 
10:35	60.7	60.7	60.7	63	48.0	1	4	292	0.00	29.969 
10:40	61.3	61.3	61.3	63	48.6	1	4	292	0.00	29.969 
10:45	60.9	60.9	60.9	62	47.8	2	5	315	0.00	29.967 
10:50	60.9	60.9	60.9	63	48.2	2	7	315	0.00	29.967 
10:55	61.2	61.2	61.2	63	48.5	2	4	292	0.00	29.967 
11:00	61.2	61.2	61.2	63	48.5	2	5	292	0.00	29.963 
11:05	61.5	61.5	61.5	63	48.8	1	3	270	0.00	29.963 
11:10	61.6	61.6	61.6	62	48.4	2	4	315	0.00	29.963 
11:15	61.6	61.6	61.6	63	48.9	1	4	292	0.00	29.960 
11:20	62.3	62.3	62.3	62	49.1	1	5	292	0.00	29.960 
11:25	62.4	62.4	62.4	62	49.2	1	6	292	0.00	29.960 
11:30	62.9	62.9	62.9	62	49.7	1	4	292	0.00	29.958 
11:35	63.2	63.2	63.2	61	49.5	1	4	315	0.00	29.958 
11:40	63.5	63.5	63.5	57	48.0	3	5	270	0.00	29.958 
11:45	63.4	63.4	63.4	56	47.4	3	7	292	0.00	29.959 
11:50	63.9	63.9	63.9	56	47.9	2	5	292	0.00	29.959 
11:55	64.3	64.3	64.3	54	47.3	2	5	270	0.00	29.959 
12:00	63.9	63.9	63.9	53	46.4	2	6	292	0.00	29.955 
12:05	63.4	63.4	63.4	50	44.4	3	9	292	0.00	29.955 
12:10	63.7	63.7	63.7	55	47.2	1	4	292	0.00	29.955 
12:15	64.7	64.7	64.7	54	47.7	1	4	292	0.00	29.953 
12:20	64.8	64.8	64.8	52	46.8	1	3	315	0.00	29.953 
12:25	64.7	64.7	64.7	50	45.6	2	6	338	0.00	29.953 
12:30	65.0	65.0	65.0	49	45.4	3	6	292	0.00	29.953 
12:35	65.6	65.6	65.6	50	46.5	2	7	292	0.00	29.953 
12:40	66.0	66.0	66.0	49	46.3	2	6	292	0.00	29.953 
12:45	66.0	66.0	66.0	48	45.7	2	5	292	0.00	29.950 
12:50	66.3	66.3	66.3	48	46.0	2	6	292	0.00	29.950 
12:55	66.1	66.1	66.1	47	45.3	2	6	292	0.00	29.950 
13:00	66.0	66.0	66.0	49	46.3	2	5	292	0.00	29.947 
13:05	65.8	65.8	65.8	50	46.6	1	5	315	0.00	29.947 
13:10	65.6	65.6	65.6	50	46.5	1	4	315	0.00	29.947 
13:15	66.3	66.3	66.3	52	48.1	1	4	315	0.00	29.947 
13:20	66.9	66.9	66.9	46	45.4	2	5	292	0.00	29.947 
13:25	67.3	67.3	67.3	47	46.4	2	6	292	0.00	29.947 
13:30	67.3	67.3	67.3	44	44.6	2	5	315	0.00	29.952 
13:35	67.6	67.6	67.6	48	47.2	2	5	292	0.00	29.952 
13:40	68.1	68.1	68.1	45	45.9	3	6	292	0.00	29.952 
13:45	68.3	68.3	68.3	42	44.3	2	9	292	0.00	29.950 
13:50	68.3	68.3	68.3	42	44.3	2	6	315	0.00	29.950 
13:55	68.3	68.3	68.3	42	44.3	2	4	315	0.00	29.950 
14:00	68.3	68.3	68.3	41	43.7	1	4	338	0.00	29.949 
14:05	68.3	68.3	68.3	41	43.7	2	6	292	0.00	29.949 
14:10	68.4	68.4	68.4	42	44.4	3	6	315	0.00	29.949 
14:15	68.6	68.6	68.6	39	42.6	2	5	292	0.00	29.947 
14:20	68.6	68.6	68.6	39	42.6	2	6	315	0.00	29.947 
14:25	68.8	68.8	68.8	39	42.8	3	7	315	0.00	29.947 
14:30	68.8	68.8	68.8	40	43.5	2	7	315	0.00	29.944 
14:35	68.9	68.9	68.9	41	44.2	3	6	315	0.00	29.944 
14:40	69.3	69.3	69.3	41	44.6	3	5	292	0.00	29.944 
14:45	69.6	69.6	69.6	41	44.8	1	5	270	0.00	29.941 
14:50	70.1	70.1	70.1	40	44.6	1	4	270	0.00	29.941 
14:55	70.3	70.3	70.3	39	44.2	2	5	292	0.00	29.941 
15:00	70.3	70.3	70.3	40	44.8	1	3	292	0.00	29.940 
15:05	70.1	70.1	70.1	40	44.6	1	5	292	0.00	29.940 
15:10	70.4	70.4	70.4	39	44.2	3	7	315	0.00	29.940 
15:15	70.4	70.4	70.4	36	42.2	4	7	292	0.00	29.941 
15:20	70.4	70.4	70.4	35	41.4	2	7	292	0.00	29.941 
15:25	70.6	70.6	70.6	37	43.1	3	9	270	0.00	29.941 
15:30	70.8	70.8	70.8	35	41.8	3	6	292	0.00	29.940 
15:35	70.8	70.8	70.8	34	41.0	4	6	292	0.00	29.940 
15:40	70.9	70.9	70.9	33	40.3	2	5	292	0.00	29.940 
15:45	71.3	71.3	71.3	33	40.7	4	7	270	0.00	29.940 
15:50	71.3	71.3	71.3	31	39.1	3	6	315	0.00	29.940 
15:55	71.8	71.8	71.8	32	40.3	2	5	292	0.00	29.940 
16:00	72.1	72.1	72.1	30	38.9	2	5	292	0.00	29.936 
16:05	72.1	72.1	72.1	34	42.2	2	5	292	0.00	29.936 
16:10	72.0	72.0	72.0	29	38.0	3	9	292	0.00	29.936 
16:15	72.1	72.1	72.1	28	37.2	3	7	315	0.00	29.936 
16:20	72.3	72.3	72.3	29	38.3	3	5	292	0.00	29.936 
16:25	72.3	72.3	72.3	29	38.3	2	5	292	0.00	29.936 
16:30	72.3	72.3	72.3	28	37.4	3	6	270	0.00	29.933 
16:35	72.3	72.3	72.3	29	38.3	3	5	315	0.00	29.933 
16:40	72.5	72.5	72.5	30	39.3	2	6	292	0.00	29.933 
16:45	72.5	72.5	72.5	30	39.3	3	10	292	0.00	29.932 
16:50	72.3	72.3	72.3	27	36.4	3	10	292	0.00	29.932 
16:55	72.3	72.3	72.3	27	36.4	3	6	292	0.00	29.932 
17:00	72.3	72.3	72.3	27	36.4	3	7	270	0.00	29.935 
17:05	72.5	72.5	72.5	27	36.6	3	5	292	0.00	29.935 
17:10	72.7	72.7	72.7	28	37.7	2	5	315	0.00	29.935 
17:15	73.2	73.2	73.2	27	37.2	1	6	292	0.00	29.929 
17:20	73.0	73.0	73.0	27	37.0	2	6	270	0.00	29.929 
17:25	72.8	72.8	72.8	28	37.8	3	9	292	0.00	29.929 
17:30	72.5	72.5	72.5	28	37.5	3	7	292	0.00	29.936 
17:35	72.7	72.7	72.7	28	37.7	2	4	315	0.00	29.936 
17:40	72.3	72.3	72.3	28	37.4	2	10	315	0.00	29.936 
17:45	71.8	71.8	71.8	30	38.7	3	7	292	0.00	29.940 
17:50	71.5	71.5	71.5	28	36.7	3	9	292	0.00	29.940 
17:55	71.3	71.3	71.3	29	37.4	3	6	292	0.00	29.940 
18:00	71.1	71.1	71.1	28	36.3	3	6	292	0.00	29.938 
18:05	70.9	70.9	70.9	29	37.0	3	11	315	0.00	29.938 
18:10	70.9	70.9	70.9	30	37.9	2	5	292	0.00	29.938 
18:15	70.9	70.9	70.9	28	36.2	3	6	292	0.00	29.937 
18:20	70.8	70.8	70.8	28	36.1	2	6	338	0.00	29.937 
18:25	70.4	70.4	70.4	30	37.5	3	7	292	0.00	29.937 
18:30	70.3	70.3	70.3	29	36.5	3	7	292	0.00	29.941 
18:35	69.9	69.9	69.9	28	35.3	4	11	292	0.00	29.941 
18:40	69.8	69.8	69.8	29	36.1	3	10	292	0.00	29.941 
18:45	69.8	69.8	69.8	30	37.0	3	7	292	0.00	29.941 
18:50	69.6	69.6	69.6	30	36.8	3	8	315	0.00	29.941 
18:55	69.4	69.4	69.4	29	35.8	3	12	292	0.00	29.941 
19:00	69.4	69.4	69.4	29	35.8	3	8	292	0.00	29.945 
19:05	69.3	69.3	69.3	30	36.5	3	5	292	0.00	29.945 
19:10	69.1	69.1	69.1	28	34.6	3	9	315	0.00	29.945 
19:15	68.6	68.6	68.6	27	33.3	3	8	292	0.00	29.950 
19:20	68.3	68.3	68.3	29	34.8	3	10	292	0.00	29.950 
19:25	68.1	68.1	68.1	29	34.6	2	6	270	0.00	29.950 
19:30	68.1	68.1	68.1	28	33.8	3	5	315	0.00	29.957 
19:35	68.1	68.1	68.1	30	35.5	1	5	270	0.00	29.957 
19:40	68.3	68.3	68.3	30	35.7	1	4	315	0.00	29.957 
19:45	68.1	68.1	68.1	30	35.5	2	7	315	0.00	29.958 
19:50	67.6	67.6	67.6	31	35.9	3	7	292	0.00	29.958 
19:55	67.3	67.3	67.3	31	35.6	2	6	292	0.00	29.958 
20:00	67.1	67.1	67.1	32	36.3	3	7	292	0.00	29.959 
20:05	66.8	66.8	66.8	31	35.2	2	9	292	0.00	29.959 
20:10	66.6	66.6	66.6	32	35.8	2	6	315	0.00	29.959 
20:15	66.3	66.3	66.3	31	34.8	2	6	292	0.00	29.960 
20:20	66.0	66.0	66.0	31	34.5	1	4	292	0.00	29.960 
20:25	65.6	65.6	65.6	31	34.1	2	8	315	0.00	29.960 
20:30	65.5	65.5	65.5	30	33.2	1	4	292	0.00	29.958 
20:35	65.2	65.2	65.2	31	33.8	1	3	292	0.00	29.958 
20:40	64.7	64.7	64.7	29	31.7	1	4	292	0.00	29.958 
20:45	64.3	64.3	64.3	29	31.4	0	3	292	0.00	29.959 
20:50	64.0	64.0	64.0	30	31.9	0	1	292	0.00	29.959 
20:55	63.7	63.7	63.7	31	32.5	0	1	292	0.00	29.959 
21:00	63.2	63.2	63.2	32	32.9	0	2	292	0.00	29.959 
21:05	62.9	62.9	62.9	33	33.4	0	1	292	0.00	29.959 
21:10	62.6	62.6	62.6	34	33.8	0	1	292	0.00	29.959 
21:15	62.3	62.3	62.3	35	34.3	0	0	---	0.00	29.958 
21:20	61.8	61.8	61.8	35	33.9	0	1	292	0.00	29.958 
21:25	61.5	61.5	61.5	36	34.3	0	0	---	0.00	29.958 
21:30	61.2	61.2	61.2	37	34.7	0	0	---	0.00	29.961 
21:35	60.7	60.7	60.7	39	35.6	0	0	---	0.00	29.961 
21:40	60.2	60.2	60.2	39	35.2	0	0	---	0.00	29.961 
21:45	59.9	59.9	59.9	40	35.5	0	0	---	0.00	29.965 
21:50	59.6	59.6	59.6	41	35.9	0	0	---	0.00	29.965 
21:55	59.3	59.3	59.3	42	36.2	0	0	---	0.00	29.965 
22:00	58.9	58.9	58.9	45	37.6	0	0	---	0.00	29.972 
22:05	58.4	58.4	58.4	45	37.1	0	0	---	0.00	29.972 
22:10	58.1	58.1	58.1	45	36.9	0	0	---	0.00	29.972 
22:15	57.6	57.6	57.6	47	37.5	0	0	---	0.00	29.973 
22:20	57.3	57.3	57.3	47	37.2	0	0	---	0.00	29.973 
22:25	56.9	56.9	56.9	49	37.9	0	0	---	0.00	29.973 
22:30	56.6	56.6	56.6	49	37.7	0	0	---	0.00	29.975 
22:35	56.3	56.3	56.3	50	37.9	0	0	---	0.00	29.975 
22:40	56.2	56.2	56.2	50	37.8	0	0	---	0.00	29.975 
22:45	56.0	56.0	56.0	51	38.1	0	0	---	0.00	29.977 
22:50	55.9	55.9	55.9	54	39.5	0	0	---	0.00	29.977 
22:55	55.7	55.7	55.7	55	39.8	0	0	---	0.00	29.977 
23:00	55.6	55.6	55.6	55	39.7	0	0	---	0.00	29.978 
23:05	55.3	55.3	55.3	56	39.9	0	0	---	0.00	29.978 
23:10	55.0	55.0	55.0	56	39.6	0	0	---	0.00	29.978 
23:15	54.7	54.7	54.7	57	39.8	0	0	---	0.00	29.977 
23:20	54.4	54.4	54.4	58	39.9	0	0	---	0.00	29.977 
23:25	53.9	53.9	53.9	58	39.5	0	0	---	0.00	29.977 
23:30	53.6	53.6	53.6	59	39.6	0	0	---	0.00	29.985 
23:35	53.5	53.5	53.5	60	40.0	0	0	---	0.00	29.985 
23:40	53.2	53.2	53.2	61	40.1	0	0	---	0.00	29.985 
23:45	53.1	53.1	53.1	62	40.4	0	0	---	0.00	29.984 
23:50	52.8	52.8	52.8	63	40.6	0	0	---	0.00	29.984 
23:55	52.6	52.6	52.6	64	40.8	0	0	---	0.00	29.984 

CoCoRaHS
IN-AL-39
A2 Web Hosting
Creative Commons License
GoDaddy
search engine by freefind advanced

loaded 2018-11-18 11:08:52 • last modified 2010-11-18 10:43:29
Privacy PolicyDisclaimer
• wx.awcolley.com is powered by PmWiki v.2002016 •
• all content (unless otherwise noted) © 2018 A W Colley